Time;durP1;ratioP1;P1;durP2;ratioP2;P2;SDS_P1;SDS_P2;PMS_P1;PMS_P2;Temp;Humidity;BMP_temperature;BMP_pressure;BME280_temperature;BME280_humidity;BME280_pressure;Samples;Min_cycle;Max_cycle;Signal;HPM_P1;HPM_P2
2022/11/29 00:00:57;;;;;;;;;2.00;1.00;;;;;19.29;41.33;100873.69;5058724;28;45527;-53
2022/11/29 00:03:23;;;;;;;;;2.25;2.25;;;;;19.27;41.36;100876.41;5057637;28;45508;-52
2022/11/29 00:05:48;;;;;;;;;1.00;1.00;;;;;19.25;41.88;100869.50;5058098;28;45410;-53
2022/11/29 00:08:13;;;;;;;;;2.00;2.00;;;;;19.25;41.47;100870.34;5057549;28;45323;-55
2022/11/29 00:10:38;;;;;;;;;1.50;1.50;;;;;19.27;41.45;100878.16;5060598;28;45292;-55
2022/11/29 00:13:04;;;;;;;;;2.00;2.00;;;;;19.26;41.83;100873.81;5064984;28;45442;-54
2022/11/29 00:15:29;;;;;;;;;2.00;2.00;;;;;19.26;41.96;100877.31;5059306;28;45405;-54
2022/11/29 00:17:55;;;;;;;;;2.75;2.75;;;;;19.26;41.82;100874.69;5058000;28;45562;-53
2022/11/29 00:20:21;;;;;;;;;3.00;1.25;;;;;19.25;41.71;100880.00;5058461;28;45506;-53
2022/11/29 00:22:46;;;;;;;;;1.75;1.75;;;;;19.25;41.24;100880.00;5057984;28;46493;-53
2022/11/29 00:25:12;;;;;;;;;3.00;2.00;;;;;19.25;41.83;100880.88;5057720;28;45796;-53
2022/11/29 00:27:37;;;;;;;;;2.00;1.25;;;;;19.26;41.62;100876.44;5062911;28;45190;-53
2022/11/29 00:30:03;;;;;;;;;2.00;2.00;;;;;19.24;41.56;100879.16;5065264;28;45283;-52
2022/11/29 00:32:28;;;;;;;;;1.00;1.00;;;;;19.24;41.37;100879.16;5062705;28;46285;-53
2022/11/29 00:34:53;;;;;;;;;2.00;2.00;;;;;19.24;41.88;100886.19;5070946;28;45189;-53
2022/11/29 00:37:19;;;;;;;;;1.25;1.25;;;;;19.24;41.72;100891.44;5060951;28;45468;-54
2022/11/29 00:39:44;;;;;;;;;4.00;1.50;;;;;19.23;41.50;100887.13;5064929;28;45339;-56
2022/11/29 00:42:09;;;;;;;;;6.00;2.25;;;;;19.24;41.52;100891.44;5059464;28;50314;-52
2022/11/29 00:44:35;;;;;;;;;2.00;2.00;;;;;19.23;41.18;100887.13;5057333;28;58493;-57
2022/11/29 00:47:00;;;;;;;;;3.50;3.00;;;;;19.22;41.78;100893.31;5057703;28;45224;-56
2022/11/29 00:49:25;;;;;;;;;1.00;1.00;;;;;19.23;41.55;100889.75;5057688;28;45439;-53
2022/11/29 00:51:51;;;;;;;;;1.50;1.00;;;;;19.22;41.82;100888.06;5057325;28;48062;-52
2022/11/29 00:54:16;;;;;;;;;1.00;1.00;;;;;19.21;41.48;100886.34;5057335;28;45339;-55
2022/11/29 00:56:42;;;;;;;;;0.75;0.75;;;;;19.21;41.62;100892.44;5057542;28;45367;-55
2022/11/29 00:59:07;;;;;;;;;2.00;2.00;;;;;19.21;41.63;100889.81;5057664;28;45381;-55
2022/11/29 01:01:32;;;;;;;;;2.00;2.00;;;;;19.21;41.54;100888.97;5057486;28;45406;-56
2022/11/29 01:04:00;;;;;;;;;1.00;0.00;;;;;19.20;41.41;100885.47;5041271;28;45441;-53
2022/11/29 01:06:25;;;;;;;;;2.00;2.00;;;;;19.21;41.51;100888.97;5071034;28;45297;-53
2022/11/29 01:08:50;;;;;;;;;2.00;1.00;;;;;19.20;41.76;100885.47;5070297;28;45406;-55
2022/11/29 01:11:21;;;;;;;;;2.50;1.25;;;;;19.21;41.72;100886.34;5068326;28;45415;-53
2022/11/29 01:13:49;;;;;;;;;1.25;1.25;;;;;19.21;41.56;100883.72;5059372;28;45487;-54
2022/11/29 01:16:15;;;;;;;;;3.25;1.75;;;;;19.21;41.40;100888.97;5060245;28;45351;-54
2022/11/29 01:18:41;;;;;;;;;1.00;1.00;;;;;19.21;41.78;100891.59;5060663;28;45434;-54
2022/11/29 01:21:13;;;;;;;;;2.50;1.00;;;;;19.20;41.80;100897.78;5040838;28;47500;-54
2022/11/29 01:23:38;;;;;;;;;1.25;1.25;;;;;19.19;41.79;100899.53;5038828;28;45896;-54
2022/11/29 01:26:07;;;;;;;;;2.00;2.00;;;;;19.19;41.25;100894.28;5056827;28;45411;-54
2022/11/29 01:28:33;;;;;;;;;3.75;2.00;;;;;19.18;41.81;100892.63;5057274;28;45201;-52
2022/11/29 01:31:07;;;;;;;;;2.00;2.00;;;;;19.20;41.41;100908.28;5056583;28;45394;-53
2022/11/29 01:33:32;;;;;;;;;2.00;2.00;;;;;19.19;41.78;100903.97;5063988;28;45780;-53
2022/11/29 01:35:58;;;;;;;;;1.25;1.25;;;;;19.19;41.85;100901.34;5063611;28;45406;-52
2022/11/29 01:38:23;;;;;;;;;5.25;3.00;;;;;19.19;41.78;100911.84;5045172;28;45289;-54
2022/11/29 01:41:13;;;;;;;;;2.00;1.00;;;;;19.19;41.46;100914.47;5063917;28;46018;-55
2022/11/29 01:43:58;;;;;;;;;1.50;1.50;;;;;19.19;41.62;100914.47;5065664;28;45134;-53
2022/11/29 01:46:26;;;;;;;;;2.00;2.00;;;;;19.18;41.42;100915.41;5070913;28;45309;-54
2022/11/29 01:48:57;;;;;;;;;1.00;1.00;;;;;19.18;41.68;100923.28;5079324;28;44820;-53
2022/11/29 01:51:24;;;;;;;;;1.25;1.25;;;;;19.16;41.72;100926.81;5077024;28;45459;-54
2022/11/29 01:53:49;;;;;;;;;3.00;2.00;;;;;19.18;41.55;100925.91;5060557;28;45285;-56
2022/11/29 01:56:15;;;;;;;;;1.00;1.00;;;;;19.15;41.57;100930.38;5058345;28;45355;-53
2022/11/29 01:58:43;;;;;;;;;2.00;2.00;;;;;19.16;41.69;100926.00;5058841;28;45455;-53
2022/11/29 02:01:09;;;;;;;;;1.00;1.00;;;;;19.16;41.31;100933.88;5067908;28;45563;-58
2022/11/29 02:03:34;;;;;;;;;3.00;1.25;;;;;19.16;41.37;100939.97;5042830;28;45323;-53
2022/11/29 02:06:01;;;;;;;;;1.25;1.25;;;;;19.16;41.30;100936.50;5056793;28;45305;-55
2022/11/29 02:08:35;;;;;;;;;1.50;1.50;;;;;19.15;41.45;100940.06;5057380;28;45304;-54
2022/11/29 02:11:32;;;;;;;;;2.00;1.00;;;;;19.18;41.75;100944.28;5056376;28;46654;-54
2022/11/29 02:14:09;;;;;;;;;1.00;1.00;;;;;19.20;41.41;100939.81;5056996;28;45477;-56
2022/11/29 02:16:48;;;;;;;;;1.25;1.25;;;;;19.23;41.64;100944.94;5060659;28;45264;-58
2022/11/29 02:19:16;;;;;;;;;1.00;1.00;;;;;19.27;41.56;100942.09;5063951;28;45329;-53
2022/11/29 02:21:45;;;;;;;;;2.00;1.00;;;;;19.32;41.73;100952.38;5061480;28;47397;-57
2022/11/29 02:24:41;;;;;;;;;3.00;2.00;;;;;19.38;41.69;100945.97;5061634;28;45734;-53
2022/11/29 02:27:23;;;;;;;;;1.75;1.75;;;;;19.43;41.90;100947.44;5066252;28;45195;-57
2022/11/29 02:30:43;;;;;;;;;1.25;1.25;;;;;19.49;41.40;100942.81;5075653;28;45461;-55
2022/11/29 02:33:11;;;;;;;;;2.00;2.00;;;;;19.54;41.72;100948.69;4996739;28;45334;-57
2022/11/29 02:36:09;;;;;;;;;1.00;1.00;;;;;19.59;41.39;100951.94;5073915;28;45851;-57
2022/11/29 02:38:57;;;;;;;;;1.00;1.00;;;;;19.63;41.33;100951.69;5075360;28;45415;-57
2022/11/29 02:41:38;;;;;;;;;1.00;1.00;;;;;19.67;41.04;100947.16;5072564;28;45322;-56
2022/11/29 02:44:15;;;;;;;;;3.00;1.00;;;;;19.71;41.49;100953.13;5065821;28;46960;-55
2022/11/29 02:47:03;;;;;;;;;0.75;0.50;;;;;19.75;41.21;100958.16;5061561;28;45917;-56
2022/11/29 02:49:59;;;;;;;;;1.00;1.00;;;;;19.80;41.38;100951.78;5062545;28;45392;-55
2022/11/29 02:52:38;;;;;;;;;1.00;1.00;;;;;19.82;40.74;100958.69;5053672;28;45306;-55
2022/11/29 02:55:11;;;;;;;;;1.00;1.00;;;;;19.85;40.80;100952.41;5074211;28;46589;-54
2022/11/29 02:57:53;;;;;;;;;1.00;1.00;;;;;19.87;41.02;100954.06;5072167;28;45398;-56
2022/11/29 03:00:20;;;;;;;;;1.00;1.00;;;;;19.91;41.32;100960.00;5064715;28;45296;-56
2022/11/29 03:03:26;;;;;;;;;1.00;1.00;;;;;19.92;40.79;100952.06;5072720;28;45332;-57
2022/11/29 03:06:14;;;;;;;;;2.00;2.00;;;;;19.95;41.26;100953.69;5078583;28;45526;-58
2022/11/29 03:08:52;;;;;;;;;1.75;1.75;;;;;19.96;40.82;100960.66;5081879;28;45103;-54
2022/11/29 03:11:38;;;;;;;;;3.00;1.00;;;;;19.98;40.96;100964.06;5078692;28;44675;-53
2022/11/29 03:14:23;;;;;;;;;1.00;1.00;;;;;19.98;41.20;100965.81;5074987;28;45259;-53
2022/11/29 03:16:54;;;;;;;;;1.75;1.75;;;;;19.99;40.82;100962.25;5073766;28;47588;-57
2022/11/29 03:19:32;;;;;;;;;1.25;1.25;;;;;19.99;41.11;100968.41;5072693;28;45244;-57
2022/11/29 03:22:11;;;;;;;;;1.00;1.00;;;;;19.99;41.05;100968.41;5064086;28;45265;-57
2022/11/29 03:24:57;;;;;;;;;2.00;1.50;;;;;20.00;40.85;100971.88;5071494;28;45449;-56
2022/11/29 03:27:33;;;;;;;;;1.00;1.00;;;;;19.99;41.06;100972.78;5060077;28;45677;-52
2022/11/29 03:30:04;;;;;;;;;1.00;1.00;;;;;19.98;40.93;100969.31;5062375;28;45335;-54
2022/11/29 03:32:38;;;;;;;;;1.00;1.00;;;;;19.98;40.79;100979.84;5066855;28;45314;-54
2022/11/29 03:35:15;;;;;;;;;1.00;1.00;;;;;19.99;41.06;100978.91;5063243;28;45926;-55
2022/11/29 03:37:55;;;;;;;;;1.00;1.00;;;;;19.99;41.17;100980.69;5060920;28;45716;-53
2022/11/29 03:40:51;;;;;;;;;1.50;1.00;;;;;19.98;40.44;100979.84;5059048;28;45303;-54
2022/11/29 03:43:32;;;;;;;;;0.25;0.25;;;;;19.99;41.06;100986.81;5057454;28;45190;-54
2022/11/29 03:46:04;;;;;;;;;2.00;2.00;;;;;19.98;41.13;100982.47;5061955;28;45375;-54
2022/11/29 03:48:38;;;;;;;;;0.25;0.25;;;;;19.94;40.61;100983.53;5066136;28;45599;-55
2022/11/29 03:51:36;;;;;;;;;1.00;1.00;;;;;19.98;40.88;100992.13;5059607;28;45285;-54
2022/11/29 03:54:21;;;;;;;;;1.50;1.50;;;;;19.99;41.10;101004.34;5058713;28;45440;-56
2022/11/29 03:56:46;;;;;;;;;2.00;1.00;;;;;19.98;40.57;100998.25;5058667;28;45426;-53
2022/11/29 03:59:30;;;;;;;;;2.25;1.25;;;;;19.97;41.05;101004.44;5058158;28;47155;-55
2022/11/29 04:02:18;;;;;;;;;1.75;1.75;;;;;19.98;40.61;101013.19;5059448;28;45174;-54
2022/11/29 04:05:19;;;;;;;;;3.00;1.00;;;;;19.96;41.00;101010.63;5074421;28;45465;-56
2022/11/29 04:08:04;;;;;;;;;1.50;1.50;;;;;19.97;40.99;101016.72;4994442;28;45271;-53
2022/11/29 04:11:10;;;;;;;;;1.00;1.00;;;;;19.96;40.63;101010.63;5061195;28;46798;-56
2022/11/29 04:14:09;;;;;;;;;1.75;1.00;;;;;19.96;40.70;101020.28;5060652;28;45716;-54
2022/11/29 04:17:00;;;;;;;;;2.50;1.75;;;;;19.94;40.99;101012.47;5063138;28;45435;-55
2022/11/29 04:19:55;;;;;;;;;0.50;0.50;;;;;19.94;41.07;101025.63;5062844;28;45228;-53
2022/11/29 04:22:58;;;;;;;;;1.00;1.00;;;;;19.94;40.92;101028.25;5057563;28;45619;-56
2022/11/29 04:25:32;;;;;;;;;1.00;1.00;;;;;19.94;40.71;101033.53;5057791;28;45411;-53
2022/11/29 04:28:30;;;;;;;;;1.50;1.00;;;;;19.93;40.56;101031.81;5057936;28;45288;-53
2022/11/29 04:31:27;;;;;;;;;2.00;1.00;;;;;19.92;40.96;101031.00;5023244;28;45577;-53
2022/11/29 04:34:03;;;;;;;;;0.50;0.00;;;;;19.91;41.03;101036.31;5057508;28;45449;-54
2022/11/29 04:36:48;;;;;;;;;1.00;1.00;;;;;19.90;40.94;101037.22;5057529;28;45392;-54
2022/11/29 04:40:06;;;;;;;;;3.25;2.00;;;;;19.87;40.62;101037.41;5057811;28;45394;-53
2022/11/29 04:42:46;;;;;;;;;2.00;2.00;;;;;19.89;40.77;101048.72;4958187;28;45788;-54
2022/11/29 04:45:31;;;;;;;;;1.00;1.00;;;;;19.89;40.57;101053.97;5059487;28;48269;-54
2022/11/29 04:48:34;;;;;;;;;0.75;0.75;;;;;19.87;40.76;101053.19;5063565;28;45163;-53
2022/11/29 04:51:44;;;;;;;;;1.50;1.50;;;;;19.86;40.56;101046.22;5076455;28;45145;-53
2022/11/29 04:54:31;;;;;;;;;2.00;2.00;;;;;19.84;40.64;101042.78;5078154;28;44789;-52
2022/11/29 04:57:32;;;;;;;;;4.50;1.00;;;;;19.85;40.43;101055.84;5058191;28;46646;-53
2022/11/29 05:00:07;;;;;;;;;1.00;1.00;;;;;19.84;40.74;101055.91;5031376;28;45436;-54
2022/11/29 05:02:40;;;;;;;;;2.25;1.00;;;;;19.83;40.52;101062.09;5057526;28;45288;-54
2022/11/29 05:05:29;;;;;;;;;2.50;1.75;;;;;19.83;40.68;101062.09;5057800;28;45178;-54
2022/11/29 05:08:31;;;;;;;;;1.75;1.00;;;;;19.82;40.86;101061.28;5057088;28;45522;-57
2022/11/29 05:11:25;;;;;;;;;3.25;1.00;;;;;19.81;41.00;101074.47;5059109;28;45373;-54
2022/11/29 05:13:56;;;;;;;;;2.00;2.00;;;;;19.80;40.92;101072.75;5067633;28;45288;-54
2022/11/29 05:17:06;;;;;;;;;1.00;1.00;;;;;19.80;40.53;101067.50;5060233;28;45402;-54
2022/11/29 05:19:57;;;;;;;;;1.00;1.00;;;;;19.77;40.92;101077.28;5041222;28;46506;-53
2022/11/29 05:22:47;;;;;;;;;2.00;2.00;;;;;19.75;41.02;101076.50;5064355;28;45764;-55
2022/11/29 05:25:36;;;;;;;;;1.00;1.00;;;;;19.77;40.53;101079.03;5061129;28;45374;-55
2022/11/29 05:28:29;;;;;;;;;1.00;1.00;;;;;19.75;40.85;101079.13;5057665;28;45403;-53
2022/11/29 05:31:22;;;;;;;;;2.00;2.00;;;;;19.75;40.76;101087.00;5056845;28;45663;-54
2022/11/29 05:34:20;;;;;;;;;2.00;2.00;;;;;19.74;40.92;101085.31;5058408;28;45371;-56
2022/11/29 05:37:18;;;;;;;;;3.00;1.75;;;;;19.74;40.58;101101.09;5066946;28;45376;-55
2022/11/29 05:39:53;;;;;;;;;2.00;1.00;;;;;19.73;40.53;101103.78;5033258;28;45334;-54
2022/11/29 05:42:46;;;;;;;;;1.00;1.00;;;;;19.73;41.03;101109.91;5058932;28;46359;-54
2022/11/29 05:45:21;;;;;;;;;2.25;1.25;;;;;19.73;40.63;101111.69;5057011;28;45774;-52
2022/11/29 05:47:51;;;;;;;;;1.50;1.50;;;;;19.72;40.86;101113.44;5057423;28;45336;-53
2022/11/29 05:50:30;;;;;;;;;2.00;2.00;;;;;19.72;40.91;101113.44;5056239;28;45457;-53
2022/11/29 05:53:10;;;;;;;;;4.00;1.00;;;;;19.71;41.02;101116.16;5047118;28;48326;-53
2022/11/29 05:56:00;;;;;;;;;2.25;1.75;;;;;19.70;40.93;101117.94;5070695;28;45200;-55
2022/11/29 05:58:51;;;;;;;;;2.00;2.00;;;;;19.69;40.59;101124.09;5079860;28;44699;-52
2022/11/29 06:01:42;;;;;;;;;2.50;2.50;;;;;19.69;41.04;101123.25;5076578;28;45627;-54
2022/11/29 06:04:19;;;;;;;;;3.00;2.00;;;;;19.67;40.34;101120.72;5057161;28;47976;-53
2022/11/29 06:06:44;;;;;;;;;2.00;2.00;;;;;19.68;40.86;101132.06;5075560;28;45224;-52
2022/11/29 06:09:33;;;;;;;;;3.00;1.33;;;;;19.66;40.72;101124.28;5066358;28;45201;-55
2022/11/29 06:12:05;;;;;;;;;4.00;2.00;;;;;19.66;40.50;101131.28;5059942;28;45397;-52
2022/11/29 06:14:51;;;;;;;;;1.00;1.00;;;;;19.65;40.98;101140.97;5060328;28;47084;-53
2022/11/29 06:17:55;;;;;;;;;3.75;2.25;;;;;19.62;40.51;101134.06;5060146;28;45428;-54
2022/11/29 06:20:30;;;;;;;;;1.00;1.00;;;;;19.62;40.78;101138.47;5018627;28;45453;-53
2022/11/29 06:23:11;;;;;;;;;1.50;1.50;;;;;19.62;40.99;101143.72;5065816;28;45323;-52
2022/11/29 06:26:02;;;;;;;;;3.00;3.00;;;;;19.60;40.73;101145.56;5072990;28;46055;-55
2022/11/29 06:28:57;;;;;;;;;1.25;1.00;;;;;19.57;40.53;101148.34;5060066;28;45904;-53
2022/11/29 06:31:31;;;;;;;;;3.00;2.00;;;;;19.56;40.71;101147.50;5052177;28;45431;-55
2022/11/29 06:34:15;;;;;;;;;1.75;1.75;;;;;19.54;40.80;101145.88;5070120;28;45399;-54
2022/11/29 06:36:53;;;;;;;;;2.00;2.00;;;;;19.53;40.87;101150.25;5072563;28;45270;-52
2022/11/29 06:39:19;;;;;;;;;3.00;2.00;;;;;19.52;40.88;101147.72;5065193;28;45363;-55
2022/11/29 06:41:45;;;;;;;;;4.75;2.00;;;;;19.51;41.06;101149.50;5078826;28;44729;-53
2022/11/29 06:44:11;;;;;;;;;1.25;1.25;;;;;19.51;40.94;101156.53;5072014;28;45319;-55
2022/11/29 06:47:06;;;;;;;;;2.50;2.00;;;;;19.51;41.21;101167.03;5059482;28;45336;-55
2022/11/29 06:49:40;;;;;;;;;1.75;1.75;;;;;19.51;40.58;101175.78;5059231;28;45838;-53
2022/11/29 06:52:36;;;;;;;;;2.00;2.00;;;;;19.48;41.10;101173.28;5059385;28;45394;-53
2022/11/29 06:55:01;;;;;;;;;2.75;2.00;;;;;19.48;40.58;101173.28;5059531;28;45261;-54
2022/11/29 06:57:33;;;;;;;;;1.25;1.25;;;;;19.47;41.17;101175.06;5059049;28;47299;-56
2022/11/29 07:00:12;;;;;;;;;2.00;2.00;;;;;19.46;41.10;101181.22;5058354;28;45426;-55
2022/11/29 07:03:05;;;;;;;;;2.50;2.50;;;;;19.45;41.08;101183.94;5066213;28;45189;-55
2022/11/29 07:05:35;;;;;;;;;2.25;2.00;;;;;19.44;40.70;101183.09;5054619;28;45473;-54
2022/11/29 07:08:04;;;;;;;;;4.00;1.25;;;;;19.42;41.41;101187.56;5059161;28;47218;-55
2022/11/29 07:10:32;;;;;;;;;1.75;1.75;;;;;19.43;40.95;101191.03;5060640;28;45478;-57
2022/11/29 07:12:57;;;;;;;;;2.75;2.75;;;;;19.43;40.71;101197.16;5061687;28;45209;-57
2022/11/29 07:15:23;;;;;;;;;2.00;2.00;;;;;19.42;40.72;101200.72;5063183;28;45311;-57
2022/11/29 07:18:07;;;;;;;;;3.50;2.00;;;;;19.41;40.96;101192.88;5061875;28;46152;-57
2022/11/29 07:20:54;;;;;;;;;4.00;3.00;;;;;19.40;41.13;101199.94;5080845;28;45037;-56
2022/11/29 07:23:28;;;;;;;;;2.00;2.00;;;;;19.39;41.00;101205.25;5084796;28;44672;-53
2022/11/29 07:25:56;;;;;;;;;2.00;2.00;;;;;19.39;40.68;101200.84;5077811;28;45439;-56
2022/11/29 07:28:49;;;;;;;;;1.50;1.50;;;;;19.39;41.15;101202.63;5064963;28;46726;-55
2022/11/29 07:31:36;;;;;;;;;2.50;1.75;;;;;19.39;41.29;101206.09;5067728;28;45209;-56
2022/11/29 07:34:04;;;;;;;;;2.00;2.00;;;;;19.39;41.01;101205.25;5077878;28;44659;-56
2022/11/29 07:36:56;;;;;;;;;4.00;2.00;;;;;19.38;40.97;101208.81;5072756;28;45319;-56
2022/11/29 07:39:40;;;;;;;;;2.00;2.00;;;;;19.38;41.29;101209.66;5073937;28;45550;-55
2022/11/29 07:42:30;;;;;;;;;3.00;3.00;;;;;19.37;41.08;101217.63;5077182;28;45158;-56
2022/11/29 07:45:17;;;;;;;;;5.00;3.00;;;;;19.36;40.77;101214.13;5069542;28;45468;-56
2022/11/29 07:47:42;;;;;;;;;2.00;2.00;;;;;19.36;40.82;101216.75;5068980;28;45159;-53
2022/11/29 07:50:12;;;;;;;;;5.00;2.00;;;;;19.35;40.92;101220.28;5074696;28;47204;-56
2022/11/29 07:52:37;;;;;;;;;4.00;4.00;;;;;19.35;41.35;101220.28;5072893;28;45271;-55
2022/11/29 07:55:03;;;;;;;;;3.00;3.00;;;;;19.35;40.83;101219.44;5072266;28;45473;-55
2022/11/29 07:57:29;;;;;;;;;3.75;2.50;;;;;19.35;40.75;101224.69;5071658;28;45280;-55
2022/11/29 07:59:54;;;;;;;;;3.00;3.00;;;;;19.35;41.03;101225.53;5075258;28;45366;-56
2022/11/29 08:02:27;;;;;;;;;3.00;3.00;;;;;19.34;41.03;101221.25;5075697;28;66630;-55
2022/11/29 08:04:53;;;;;;;;;3.00;3.00;;;;;19.32;40.79;101225.69;5075292;28;45268;-55
2022/11/29 08:07:18;;;;;;;;;3.75;3.75;;;;;19.35;41.18;101232.59;5075216;28;45643;-54
2022/11/29 08:09:43;;;;;;;;;3.75;3.75;;;;;19.34;41.24;101229.13;5072076;28;48508;-55
2022/11/29 08:12:08;;;;;;;;;4.00;3.00;;;;;19.34;40.76;101236.13;5064515;28;48040;-54
2022/11/29 08:14:34;;;;;;;;;3.25;3.25;;;;;19.35;41.14;101236.06;5059971;28;45433;-55
2022/11/29 08:16:59;;;;;;;;;4.00;3.25;;;;;19.34;41.54;101238.75;5060979;28;45556;-56
2022/11/29 08:19:24;;;;;;;;;0.25;0.25;;;;;19.31;41.00;101240.59;5060027;28;51678;-53
2022/11/29 08:21:51;;;;;;;;;3.75;3.75;;;;;19.34;40.67;101246.66;5058797;28;45522;-54
2022/11/29 08:24:16;;;;;;;;;4.50;4.50;;;;;19.33;41.11;101248.44;5053933;28;45391;-56
2022/11/29 08:26:41;;;;;;;;;2.25;2.00;;;;;19.33;41.25;101253.69;5069600;28;45898;-53
2022/11/29 08:29:07;;;;;;;;;4.25;3.25;;;;;19.33;41.09;101258.06;5057526;28;52520;-56
2022/11/29 08:31:32;;;;;;;;;2.00;0.00;;;;;19.33;41.20;101260.72;5058359;28;45407;-56
2022/11/29 08:33:58;;;;;;;;;3.00;3.00;;;;;19.31;41.07;101260.78;5058297;28;45339;-54
2022/11/29 08:36:23;;;;;;;;;5.75;3.50;;;;;19.32;41.12;101270.38;5058928;28;45569;-54
2022/11/29 08:38:49;;;;;;;;;3.50;3.50;;;;;19.31;41.11;101272.13;5058360;28;45556;-56
2022/11/29 08:41:16;;;;;;;;;6.75;4.25;;;;;19.31;40.71;101271.31;5067753;28;45316;-57
2022/11/29 08:43:42;;;;;;;;;3.25;2.00;;;;;19.30;40.72;101275.69;5068805;28;45558;-57
2022/11/29 08:46:08;;;;;;;;;4.00;4.00;;;;;19.29;41.00;101279.22;5062672;28;45459;-55
2022/11/29 08:48:34;;;;;;;;;7.00;5.00;;;;;19.30;40.75;101286.19;5058213;28;46676;-56
2022/11/29 08:51:00;;;;;;;;;5.75;4.50;;;;;19.29;40.60;101291.53;5042683;28;45268;-56
2022/11/29 08:53:42;;;;;;;;;7.25;4.75;;;;;19.29;41.28;101302.03;5064452;28;45324;-54
2022/11/29 08:56:17;;;;;;;;;5.50;5.00;;;;;19.29;40.99;101309.94;5073284;28;45350;-56
2022/11/29 08:58:43;;;;;;;;;5.75;5.75;;;;;19.29;41.07;101309.94;5062531;28;45424;-57
2022/11/29 09:01:14;;;;;;;;;5.25;5.25;;;;;19.28;40.90;101318.72;5064807;28;45440;-55
2022/11/29 09:03:58;;;;;;;;;6.50;5.50;;;;;19.28;41.21;101314.34;5063878;28;45253;-58
2022/11/29 09:06:26;;;;;;;;;8.75;6.00;;;;;19.28;41.11;101318.72;5059367;28;45305;-58
2022/11/29 09:08:55;;;;;;;;;8.50;4.00;;;;;19.28;40.64;101318.72;5058064;28;45716;-58
2022/11/29 09:11:21;;;;;;;;;8.50;6.75;;;;;19.27;41.03;101327.53;5061040;28;45425;-57
2022/11/29 09:13:50;;;;;;;;;6.50;6.50;;;;;19.26;40.65;101320.56;5060188;28;45304;-57
2022/11/29 09:16:18;;;;;;;;;8.50;6.25;;;;;19.26;41.87;101333.69;5059671;28;45589;-52
2022/11/29 09:20:32;;;;;;;;;9.00;7.75;;;;;19.29;41.57;101325.69;5152531;27;45444;-43
2022/11/29 09:22:58;;;;;;;;;10.00;5.75;;;;;19.29;41.49;101331.78;5134909;27;45775;-43
2022/11/29 09:25:24;;;;;;;;;6.50;6.50;;;;;19.29;40.90;101337.06;5135116;27;45351;-42
2022/11/29 09:27:50;;;;;;;;;8.25;7.00;;;;;19.30;41.10;101343.19;5135640;27;45314;-45
2022/11/29 09:30:16;;;;;;;;;5.75;4.75;;;;;19.31;41.28;101345.72;5134827;27;45466;-45
2022/11/29 09:32:42;;;;;;;;;9.00;6.00;;;;;19.32;40.99;101346.59;5133686;27;45474;-41
2022/11/29 09:35:07;;;;;;;;;6.00;6.00;;;;;19.32;41.18;101351.84;5134943;27;45866;-44
2022/11/29 09:37:35;;;;;;;;;9.25;7.25;;;;;19.33;40.99;101350.06;5134973;27;45341;-41
2022/11/29 09:40:01;;;;;;;;;6.50;5.00;;;;;19.32;41.04;101362.38;5134657;27;46396;-43
2022/11/29 09:42:45;;;;;;;;;8.25;7.00;;;;;19.33;41.36;101361.47;5134600;27;45325;-47
2022/11/29 09:45:18;;;;;;;;;12.00;8.00;;;;;19.34;40.99;101368.44;5134791;27;45429;-45
2022/11/29 09:47:56;;;;;;;;;9.25;6.75;;;;;19.35;41.34;101366.63;5150872;27;45554;-46
2022/11/29 09:50:42;;;;;;;;;10.50;6.00;;;;;19.34;41.04;101375.44;5150766;27;46161;-44
2022/11/29 09:53:17;;;;;;;;;3.75;2.00;;;;;19.35;41.39;101367.47;5134450;27;45926;-43
2022/11/29 09:56:08;;;;;;;;;7.75;6.75;;;;;19.34;41.01;101373.69;5134718;27;45334;-43
2022/11/29 09:58:43;;;;;;;;;7.00;7.00;;;;;19.35;41.72;101380.63;5134631;27;45411;-44
2022/11/29 10:01:18;;;;;;;;;8.00;6.50;;;;;19.35;41.06;101385.88;5134318;27;46506;-41
2022/11/29 10:03:52;;;;;;;;;6.50;5.50;;;;;19.36;41.04;101389.38;5134384;27;45961;-42
2022/11/29 10:06:25;;;;;;;;;4.75;4.75;;;;;19.36;40.76;101399.88;5134525;27;45467;-47
2022/11/29 10:08:54;;;;;;;;;8.00;6.25;;;;;19.35;40.97;101400.81;5134583;27;45350;-42
2022/11/29 10:11:27;;;;;;;;;8.75;6.00;;;;;19.36;40.98;101405.16;5134264;27;45435;-42
2022/11/29 10:13:59;;;;;;;;;8.75;7.00;;;;;19.35;41.18;101406.91;5134632;27;45316;-42
2022/11/29 10:16:46;;;;;;;;;9.00;7.00;;;;;19.35;40.93;101399.00;5134521;27;45328;-44
2022/11/29 10:19:20;;;;;;;;;6.50;6.50;;;;;19.35;41.05;101399.00;5134358;27;45478;-43
2022/11/29 10:22:18;;;;;;;;;9.00;7.75;;;;;19.35;40.73;101399.00;5134042;27;45304;-40
2022/11/29 10:24:51;;;;;;;;;9.50;7.50;;;;;19.34;40.87;101392.06;5117054;27;45986;-42
2022/11/29 10:27:22;;;;;;;;;6.50;4.00;;;;;19.33;41.18;101398.25;5150281;27;45456;-43
2022/11/29 10:29:50;;;;;;;;;7.25;7.25;;;;;19.35;41.35;101404.28;5132315;27;45280;-40
2022/11/29 10:32:20;;;;;;;;;8.50;8.00;;;;;19.38;40.81;101404.16;5119831;27;46213;-41
2022/11/29 10:34:46;;;;;;;;;9.50;6.50;;;;;19.41;41.04;101403.16;5119785;27;45303;-40
2022/11/29 10:37:19;;;;;;;;;7.50;5.75;;;;;19.44;40.94;101409.19;5120327;27;45478;-42
2022/11/29 10:40:09;;;;;;;;;6.50;6.50;;;;;19.50;41.29;101409.81;5120177;27;45328;-40
2022/11/29 10:42:47;;;;;;;;;6.50;6.25;;;;;19.54;41.35;101414.03;5119917;27;46375;-41
2022/11/29 10:45:15;;;;;;;;;7.50;7.25;;;;;19.59;41.07;101409.44;5119714;27;45530;-41
2022/11/29 10:47:44;;;;;;;;;8.75;7.00;;;;;19.65;40.89;101411.81;5119995;27;45275;-40
2022/11/29 10:50:18;;;;;;;;;8.50;7.00;;;;;19.67;41.17;101412.63;5120124;27;45444;-41
2022/11/29 10:52:43;;;;;;;;;8.25;7.00;;;;;19.72;40.94;101413.25;5119975;27;45713;-41
2022/11/29 10:55:13;;;;;;;;;8.50;7.50;;;;;19.76;41.02;101404.31;5119967;27;45305;-45
2022/11/29 10:58:25;;;;;;;;;8.00;6.00;;;;;19.81;40.49;101404.13;5119946;27;45430;-41
2022/11/29 11:00:52;;;;;;;;;8.00;6.50;;;;;19.86;40.67;101409.22;5117669;27;45348;-41
2022/11/29 11:03:31;;;;;;;;;7.00;6.75;;;;;19.87;40.90;101416.19;5119543;27;45631;-43
2022/11/29 11:06:01;;;;;;;;;6.25;6.25;;;;;19.93;40.92;101415.91;5119693;27;45937;-43
2022/11/29 11:08:27;;;;;;;;;12.00;8.00;;;;;19.96;40.67;101423.69;5119956;27;45344;-46
2022/11/29 11:10:55;;;;;;;;;6.00;6.00;;;;;19.98;40.25;101413.94;5119853;27;45252;-43
2022/11/29 11:13:24;;;;;;;;;6.00;6.00;;;;;20.02;40.88;101418.13;5119341;27;46054;-44
2022/11/29 11:15:56;;;;;;;;;8.00;7.00;;;;;20.05;40.34;101420.63;5119382;27;45278;-43
2022/11/29 11:18:25;;;;;;;;;8.50;7.00;;;;;20.06;40.22;101411.81;5134841;27;45405;-44
2022/11/29 11:20:55;;;;;;;;;7.25;6.00;;;;;20.10;40.41;101416.97;5118276;27;45266;-41
2022/11/29 11:23:31;;;;;;;;;7.25;7.00;;;;;20.11;40.71;101423.94;5119328;27;45505;-42
2022/11/29 11:26:16;;;;;;;;;7.50;7.50;;;;;20.13;40.09;101427.34;5119707;27;45273;-43
2022/11/29 11:28:51;;;;;;;;;6.25;6.00;;;;;20.15;40.41;101429.00;5119094;27;45443;-41
2022/11/29 11:31:27;;;;;;;;;10.00;8.75;;;;;20.16;40.54;101422.81;5134904;27;45616;-42
2022/11/29 11:33:53;;;;;;;;;8.00;7.00;;;;;20.16;40.10;101425.44;5119118;27;45286;-44
2022/11/29 11:36:18;;;;;;;;;8.50;7.75;;;;;20.17;40.34;101426.28;5134982;27;45507;-44
2022/11/29 11:38:54;;;;;;;;;10.67;8.00;;;;;20.17;40.12;101421.03;5119204;27;45245;-47
2022/11/29 11:41:22;;;;;;;;;10.00;9.00;;;;;20.17;40.42;101418.38;5119100;27;45217;-46
2022/11/29 11:43:56;;;;;;;;;8.00;7.25;;;;;20.18;40.06;101420.09;5118034;27;47083;-48
2022/11/29 11:46:47;;;;;;;;;11.00;8.00;;;;;20.17;39.87;101416.63;5118652;27;45322;-42
2022/11/29 11:49:43;;;;;;;;;7.50;7.50;;;;;20.15;40.11;101415.84;5134875;27;45391;-44
2022/11/29 11:52:19;;;;;;;;;9.50;7.50;;;;;20.17;40.17;101418.38;5111415;27;46271;-42
2022/11/29 11:54:58;;;;;;;;;10.75;9.25;;;;;20.17;40.22;101426.28;5118559;27;45974;-44
2022/11/29 11:57:25;;;;;;;;;9.00;7.25;;;;;20.16;40.02;101417.53;5118628;27;45706;-45
2022/11/29 11:59:53;;;;;;;;;9.75;9.75;;;;;20.14;40.09;101414.13;5118702;27;45432;-43
2022/11/29 12:02:27;;;;;;;;;8.25;7.50;;;;;20.16;40.15;101421.94;5119091;27;45384;-42
2022/11/29 12:04:57;;;;;;;;;9.00;8.25;;;;;20.15;40.02;101414.97;5134424;27;45350;-45
2022/11/29 12:07:40;;;;;;;;;11.75;9.75;;;;;20.16;39.95;101419.31;5118529;27;45467;-44